Latest Weather Observations for Eliwana Airport

IDW60801

Issued at 8:54 pm WST Thursday 28 January 2021 (issued every 10 minutes, with the page automatically refreshed every 10 minutes)

About weather observations | Map of weather stations | Latest weather observations for WA | Other Formats
Station Details ID: 505063 Name: ELIWANA AIRPORT Lat: -22.43 Lon: 116.89 Height: 481.07 m
Data from the previous 72 hours. | See also: Recent months for locations in Western Australia
Date/Time
WST
Temp
°C
App
Temp
°C
Dew
Point
°C
Rel
Hum
%
Delta-T
°C
Wind Press
QNH
hPa
Press
MSL
hPa
Rain since
9am
mm
Dir  Spd
km/h
Gust
km/h
Spd
kts
Gust
kts
28/08:30pm 35.5 31.5 0.6 11 17.8 SSW 11 13 6 7 1003.1 - 0.0
28/08:00pm 37.2 32.8 0.5 10 19.0 S 13 17 7 9 1003.0 - 0.0
28/07:30pm 38.1 33.8 1.2 10 19.3 S 13 17 7 9 1002.8 - 0.0
28/07:00pm 39.5 35.1 -2.6 7 21.1 S 11 15 6 8 1002.6 - 0.0
28/06:30pm 40.1 - - - - SE 11 15 6 8 1002.3 - 0.0
28/06:00pm 40.7 37.7 -1.8 7 21.7 S 4 7 2 4 1002.2 - 0.0
28/05:30pm 40.8 35.7 -1.7 7 21.6 SSW 15 26 8 14 1002.1 - 0.0
28/05:00pm 41.0 36.2 0.3 8 21.5 S 15 22 8 12 1002.0 - 0.0
28/04:30pm 41.5 37.3 -1.2 7 22.0 SSW 11 19 6 10 1002.2 - 0.0
28/04:00pm 41.4 36.4 -1.3 7 22.0 S 15 20 8 11 1002.2 - 0.0
28/03:30pm 41.6 38.0 0.7 8 21.7 ENE 9 15 5 8 1002.6 - 0.0
28/03:00pm 41.0 37.0 0.3 8 21.5 SSW 11 22 6 12 1002.9 - 0.0
28/02:30pm 40.7 36.2 0.0 8 21.2 W 13 26 7 14 1003.3 - 0.0
28/02:00pm 41.1 37.1 0.3 8 21.5 WSW 11 22 6 12 1003.5 - 0.0
28/01:30pm 40.3 36.9 -0.3 8 21.0 W 7 20 4 11 1004.0 - 0.0
28/01:00pm 40.1 37.3 -0.4 8 21.0 WNW 4 13 2 7 1004.4 - 0.0
28/12:30pm 39.8 - - - - W 7 17 4 9 1004.8 - 0.0
28/12:00pm 38.0 34.8 -0.3 9 19.7 ESE 6 19 3 10 1005.2 - 0.0
28/11:30am 37.9 33.6 1.0 10 19.2 E 13 22 7 12 1005.5 - 0.0
28/11:00am 37.1 32.2 1.8 11 18.6 ESE 17 30 9 16 1005.9 - 0.0
28/10:30am 35.8 30.5 2.0 12 17.7 E 19 28 10 15 1006.1 - 0.0
28/10:00am 34.9 28.6 1.3 12 17.4 E 24 35 13 19 1006.2 - 0.0
28/09:30am 34.7 28.3 1.1 12 17.2 E 24 32 13 17 1006.3 - 0.0
28/09:00am 33.1 27.5 1.0 13 16.3 E 20 30 11 16 1006.3 - 0.0
28/08:30am 32.2 25.9 1.3 14 15.7 ESE 24 30 13 16 1006.4 - 0.0
28/08:00am 31.6 25.7 1.8 15 15.2 E 22 33 12 18 1006.4 - 0.0
28/07:30am 29.6 25.6 2.8 18 13.7 E 13 19 7 10 1006.5 - 0.0
28/07:00am 28.5 25.4 3.4 20 12.9 E 9 11 5 6 1006.3 - 0.0
28/06:30am 27.1 23.9 2.9 21 12.2 ENE 9 9 5 5 1006.0 - 0.0
28/06:00am 27.2 24.0 3.0 21 12.3 ESE 9 15 5 8 1005.5 - 0.0
28/05:30am 28.4 23.6 2.6 19 13.0 ESE 17 20 9 11 1005.4 - 0.0
28/05:00am 29.1 24.3 2.4 18 13.6 ESE 17 26 9 14 1005.3 - 0.0
28/04:30am 28.0 24.4 3.0 20 12.7 ESE 11 15 6 8 1005.1 - 0.0
28/04:00am 28.0 24.4 3.0 20 12.7 SE 11 15 6 8 1005.1 - 0.0
28/03:30am 29.4 25.7 2.6 18 13.6 ESE 11 19 6 10 1005.1 - 0.0
28/03:00am 28.7 26.4 2.8 19 13.2 SE 4 7 2 4 1005.1 - 0.0
28/02:30am 28.9 25.7 3.0 19 13.2 SSE 9 15 5 8 1005.1 - 0.0
28/02:00am 29.5 25.6 3.5 19 13.5 SSE 13 20 7 11 1005.1 - 0.0
28/01:30am 29.7 27.0 2.9 18 13.7 SSE 6 11 3 6 1005.1 - 0.0
28/01:00am 29.4 27.5 2.6 18 13.7 NE 2 4 1 2 1005.2 - 0.0
28/12:30am 30.1 27.3 3.2 18 13.9 SSE 7 13 4 7 1005.3 - 0.0
28/12:00am 30.8 26.1 3.0 17 14.4 S 17 26 9 14 1005.1 - 0.0
 
Date/Time
WST
Temp
°C
App
Temp
°C
Dew
Point
°C
Rel
Hum
%
Delta-T
°C
Wind Press
QNH
hPa
Press
MSL
hPa
Rain since
9am
mm
Dir  Spd
km/h
Gust
km/h
Spd
kts
Gust
kts
27/11:30pm 31.1 25.9 2.3 16 14.7 S 19 26 10 14 1005.2 - 0.0
27/11:00pm 31.6 26.7 1.8 15 15.2 S 17 24 9 13 1005.3 - 0.0
27/10:30pm 32.3 27.3 1.4 14 15.7 S 17 24 9 13 1005.2 - 0.0
27/10:00pm 32.6 27.9 0.6 13 16.1 S 15 24 8 13 1004.9 - 0.0
27/09:30pm 32.3 27.9 0.4 13 15.9 S 13 17 7 9 1004.6 - 0.0
27/09:00pm 32.9 28.4 -0.2 12 16.5 S 13 17 7 9 1004.4 - 0.0
27/08:30pm 33.5 29.1 0.2 12 16.7 S 13 17 7 9 1004.3 - 0.0
27/08:00pm 34.1 30.0 -0.5 11 17.3 S 11 15 6 8 1004.1 - 0.0
27/07:30pm 35.0 30.2 0.2 11 17.6 S 15 20 8 11 1003.8 - 0.0
27/07:00pm 35.9 30.2 -0.5 10 18.4 S 19 26 10 14 1003.5 - 0.0
27/06:30pm 36.8 32.0 0.2 10 18.7 S 15 22 8 12 1003.1 - 0.0
27/06:00pm 37.4 32.7 0.7 10 19.1 S 15 20 8 11 1002.8 - 0.0
27/05:30pm 37.9 33.4 -0.4 9 19.5 SSE 13 24 7 13 1002.7 - 0.0
27/05:00pm 38.0 33.9 -0.3 9 19.7 SSW 11 22 6 12 1002.7 - 0.0
27/04:30pm 38.5 34.0 0.0 9 19.8 SSW 13 22 7 12 1002.7 - 0.0
27/04:00pm 37.8 33.7 -0.5 9 19.6 S 11 20 6 11 1003.0 - 0.0
27/03:30pm 37.6 34.0 0.8 10 19.1 SSE 9 19 5 10 1003.3 - 0.0
27/03:00pm 37.1 33.1 0.4 10 18.9 SSE 11 22 6 12 1003.8 - 0.0
27/02:30pm 36.9 33.8 0.3 10 18.8 SE 6 13 3 7 1004.0 - 0.0
27/02:00pm 37.0 33.0 0.4 10 18.9 E 11 20 6 11 1004.3 - 0.0
27/01:30pm 36.4 32.5 1.2 11 18.3 SSE 11 24 6 13 1004.6 - 0.0
27/01:00pm 35.7 32.3 1.9 12 17.7 SSE 9 22 5 12 1004.9 - 0.0
27/12:30pm 35.4 31.6 1.7 12 17.5 ESE 11 22 6 12 1005.2 - 0.0
27/12:00pm 34.9 31.2 2.4 13 17.1 ESE 11 20 6 11 1005.4 - 0.0
27/11:30am 34.5 30.5 3.1 14 16.6 ESE 13 24 7 13 1005.9 - 0.0
27/11:00am 33.4 30.2 3.3 15 15.9 ESE 9 22 5 12 1006.3 - 0.0
27/10:30am 32.5 27.5 3.5 16 15.3 SE 19 32 10 17 1006.4 - 0.0
27/10:00am 32.0 26.7 3.1 16 15.1 SE 20 35 11 19 1006.5 - 0.0
27/09:30am 31.1 26.2 4.0 18 14.3 SE 19 26 10 14 1006.5 - 0.0
27/09:00am 30.5 26.1 5.0 20 13.6 SE 17 26 9 14 1006.6 - 0.0
27/08:30am 29.2 24.2 4.6 21 12.9 SE 20 24 11 13 1006.6 - 0.0
27/08:00am 28.3 24.6 4.6 22 12.4 SSE 13 20 7 11 1006.5 - 0.0
27/07:30am 27.6 23.2 2.6 20 12.6 S 15 20 8 11 1006.4 - 0.0
27/07:00am 25.8 23.7 1.8 21 11.8 E 2 4 1 2 1006.3 - 0.0
27/06:30am 23.0 20.5 1.4 24 10.3 WNW 4 6 2 3 1006.0 - 0.0
27/06:00am 22.8 20.6 1.2 24 10.3 W 2 4 1 2 1005.9 - 0.0
27/05:30am 22.8 20.1 0.6 23 10.4 SW 4 9 2 5 1005.6 - 0.0
27/05:00am 23.9 20.9 0.9 22 11.0 SW 6 7 3 4 1005.4 - 0.0
27/04:30am 26.0 23.0 0.6 19 12.2 SE 6 7 3 4 1005.2 - 0.0
27/04:00am 25.7 23.5 1.1 20 11.9 SSW 2 6 1 3 1005.2 - 0.0
27/03:30am 26.1 22.9 0.7 19 12.2 S 7 13 4 7 1005.0 - 0.0
27/03:00am 25.6 23.0 1.0 20 11.9 WSW 4 6 2 3 1005.2 - 0.0
27/02:30am 26.9 23.7 0.6 18 12.7 SSW 7 9 4 5 1005.1 - 0.0
27/02:00am 27.3 23.7 0.9 18 12.9 SSW 9 15 5 8 1005.0 - 0.0
27/01:30am 27.1 24.6 1.5 19 12.6 NW 4 9 2 5 1004.9 - 0.0
27/01:00am 27.7 25.3 2.0 19 12.9 NW 4 9 2 5 1005.0 - 0.0
27/12:30am 28.7 24.2 2.1 18 13.4 S 15 20 8 11 1005.0 - 0.0
27/12:00am 29.2 24.3 1.7 17 13.8 SSW 17 24 9 13 1005.1 - 0.0
 
Date/Time
WST
Temp
°C
App
Temp
°C
Dew
Point
°C
Rel
Hum
%
Delta-T
°C
Wind Press
QNH
hPa
Press
MSL
hPa
Rain since
9am
mm
Dir  Spd
km/h
Gust
km/h
Spd
kts
Gust
kts
26/11:30pm 29.3 24.7 1.7 17 13.8 SSW 15 22 8 12 1005.3 - 0.0
26/11:00pm 30.0 25.0 1.5 16 14.3 SSW 17 26 9 14 1005.4 - 0.0
26/10:30pm 30.5 25.4 1.0 15 14.7 SSW 17 24 9 13 1005.5 - 0.0
26/10:00pm 31.0 25.8 0.4 14 15.2 SSW 17 22 9 12 1005.3 - 0.0
26/09:30pm 31.6 26.5 0.9 14 15.4 SSW 17 24 9 13 1005.0 - 0.0
26/09:00pm 32.0 27.2 0.2 13 15.9 SSW 15 19 8 10 1004.7 - 0.0
26/08:30pm 32.6 28.1 -0.5 12 16.3 SSW 13 20 7 11 1004.6 - 0.0
26/08:00pm 33.3 28.3 -1.1 11 16.9 SSW 15 22 8 12 1004.5 - 0.0
26/07:30pm 33.8 28.3 -2.0 10 17.4 SSW 17 22 9 12 1004.3 - 0.0
26/07:00pm 34.6 28.8 -1.4 10 17.8 SSW 19 26 10 14 1004.0 - 0.0
26/06:30pm 35.5 29.6 -2.2 9 18.4 SSW 19 26 10 14 1003.7 - 0.0
26/06:00pm 35.9 30.6 -0.5 10 18.4 SW 17 26 9 14 1003.5 - 0.0
26/05:30pm 36.3 31.8 -0.2 10 18.5 SSW 13 26 7 14 1003.4 - 0.0
26/05:00pm 36.2 31.3 -0.2 10 18.5 SSW 15 26 8 14 1003.2 - 0.0
26/04:30pm 36.2 31.0 -0.2 10 18.4 SSW 17 26 9 14 1003.3 - 0.0
26/04:00pm 36.4 31.2 -0.1 10 18.6 SW 17 32 9 17 1003.5 - 0.0
26/03:30pm 36.8 31.8 1.5 11 18.4 S 17 32 9 17 1004.1 - 0.0
26/03:00pm 36.6 31.8 0.1 10 18.7 SW 15 28 8 15 1004.3 - 0.0
26/02:30pm 36.1 31.4 1.0 11 18.1 SSW 15 28 8 15 1004.6 - 0.0
26/02:00pm 35.6 30.9 0.6 11 18.0 SW 15 30 8 16 1004.7 - 0.0
26/01:30pm 35.3 30.9 2.7 13 17.2 SSE 15 28 8 15 1005.0 - 0.0
26/01:00pm 34.6 30.1 2.2 13 17.0 S 15 32 8 17 1005.5 - 0.0
26/12:30pm 34.6 30.3 1.1 12 17.2 SSW 13 35 7 19 1005.9 - 0.0
26/12:00pm 34.2 29.8 2.9 14 16.5 S 15 32 8 17 1006.3 - 0.0
26/11:30am 33.8 29.8 2.6 14 16.3 SW 13 28 7 15 1006.5 - 0.0
26/11:00am 33.2 28.9 1.1 13 16.4 SSW 13 28 7 15 1006.8 - 0.0
26/10:30am 32.2 29.0 3.2 16 15.2 S 9 22 5 12 1007.0 - 0.0
26/10:00am 31.9 28.5 3.8 17 14.8 SE 11 20 6 11 1007.0 - 0.0
26/09:30am 31.2 26.7 4.1 18 14.3 SSE 17 26 9 14 1007.2 - 0.0
26/09:00am 30.3 25.4 4.9 20 13.5 SE 20 26 11 14 1007.4 - 0.0
26/08:30am 29.6 25.2 5.0 21 13.1 SE 17 26 9 14 1007.3 - 0.0
26/08:00am 28.5 24.1 4.7 22 12.5 SSE 17 20 9 11 1007.3 - 0.0
26/07:30am 27.7 23.7 4.7 23 12.0 SSE 15 20 8 11 1007.4 - 0.0
26/07:00am 26.3 24.0 4.7 25 11.2 SSE 6 7 3 4 1007.3 - 0.0
26/06:30am 24.4 22.1 4.7 28 10.1 SW 6 7 3 4 1007.1 - 0.0
26/06:00am 23.3 20.9 4.3 29 9.6 SW 6 7 3 4 1006.9 - 0.0
26/05:30am 23.8 22.1 4.2 28 9.9 S 2 6 1 3 1006.5 - 0.0
26/05:00am 23.8 21.4 4.2 28 9.9 SSW 6 6 3 3 1006.3 - 0.0
26/04:30am 24.1 22.0 4.0 27 10.1 WSW 4 6 2 3 1006.2 - 0.0
26/04:00am 26.1 24.4 4.0 24 11.3 SSE 2 6 1 3 1006.3 - 0.0
26/03:30am 26.7 24.2 3.9 23 11.7 SE 6 7 3 4 1006.1 - 0.0
26/03:00am 26.0 24.3 3.9 24 11.3 WNW 2 4 1 2 1006.2 - 0.0
26/02:30am 26.4 24.4 4.2 24 11.4 NW 4 9 2 5 1006.4 - 0.0
26/02:00am 26.1 23.6 4.0 24 11.3 W 6 7 3 4 1006.4 - 0.0
26/01:30am 26.5 24.0 3.7 23 11.6 WNW 6 7 3 4 1006.7 - 0.0
26/01:00am 26.6 24.1 3.8 23 11.7 W 6 7 3 4 1006.9 - 0.0
26/12:30am 27.3 24.8 3.7 22 12.1 WNW 6 7 3 4 1007.2 - 0.0
26/12:00am 28.5 26.1 4.1 21 12.7 WSW 6 9 3 5 1007.3 - 0.0
 
Date/Time
WST
Temp
°C
App
Temp
°C
Dew
Point
°C
Rel
Hum
%
Delta-T
°C
Wind Press
QNH
hPa
Press
MSL
hPa
Rain since
9am
mm
Dir  Spd
km/h
Gust
km/h
Spd
kts
Gust
kts
25/11:30pm 29.1 26.4 3.9 20 13.1 WNW 7 13 4 7 1007.4 - 0.0
25/11:00pm 29.9 25.3 3.8 19 13.6 SSW 17 28 9 15 1007.3 - 0.0
25/10:30pm 30.5 25.4 4.3 19 13.8 SSW 20 28 11 15 1007.2 - 0.0
25/10:00pm 30.9 26.1 4.6 19 14.0 SSW 19 26 10 14 1007.1 - 0.0
25/09:30pm 31.4 27.0 5.0 19 14.1 SSW 17 22 9 12 1006.9 - 0.0
25/09:00pm 32.1 27.6 4.0 17 14.9 SSW 17 22 9 12 1006.6 - 0.0

Other formats

Comma delimited format used in spreadsheet applications
http://www.bom.gov.au/fwo/IDW60801/IDW60801.99593.axf

JavaScript Object Notation format (JSON) in row-major order
http://www.bom.gov.au/fwo/IDW60801/IDW60801.99593.json

Data quality

Most of these data are generated automatically and are frequently updated. Quality checks on data are not normally performed. It is possible for incorrect values to appear. Refer to information at About Latest Weather Observations and please check the disclaimer before using these data.